createdAt,value
2019-03-29T00:00:19.265Z,0
2019-03-29T00:01:19.201Z,0
2019-03-29T00:02:19.475Z,0
2019-03-29T00:03:19.171Z,0
2019-03-29T00:04:19.215Z,0
2019-03-29T00:05:19.172Z,0
2019-03-29T00:06:20.328Z,0
2019-03-29T00:07:19.169Z,0
2019-03-29T00:08:19.146Z,0
2019-03-29T00:09:18.931Z,0
2019-03-29T00:10:19.152Z,0
2019-03-29T00:11:20.144Z,0
2019-03-29T00:12:19.107Z,0
2019-03-29T00:13:22.387Z,0
2019-03-29T00:14:23.186Z,0
2019-03-29T00:15:19.097Z,0
2019-03-29T00:16:19.114Z,0
2019-03-29T00:17:20.420Z,0
2019-03-29T00:18:19.751Z,0
2019-03-29T00:19:19.027Z,0
2019-03-29T00:20:19.449Z,0
2019-03-29T00:21:20.194Z,0
2019-03-29T00:22:19.056Z,0
2019-03-29T00:23:19.034Z,0
2019-03-29T00:24:19.764Z,0
2019-03-29T00:25:18.985Z,0
2019-03-29T00:26:18.981Z,0
2019-03-29T00:27:19.101Z,0
2019-03-29T00:28:20.424Z,0
2019-03-29T00:29:18.992Z,0
2019-03-29T00:30:18.946Z,0
2019-03-29T00:31:18.959Z,0
2019-03-29T00:32:18.953Z,0
2019-03-29T00:33:18.926Z,0
2019-03-29T00:34:18.968Z,0
2019-03-29T00:35:18.877Z,0
2019-03-29T00:36:18.921Z,0
2019-03-29T00:37:20.314Z,0
2019-03-29T00:38:18.919Z,0
2019-03-29T00:39:19.692Z,0
2019-03-29T00:40:18.935Z,0
2019-03-29T00:41:18.830Z,0
2019-03-29T00:42:19.713Z,0
2019-03-29T00:43:18.831Z,0
2019-03-29T00:44:18.842Z,0
2019-03-29T00:45:19.100Z,0
2019-03-29T00:46:19.112Z,0
2019-03-29T00:47:18.551Z,0
2019-03-29T00:48:18.750Z,0
2019-03-29T00:49:19.601Z,0
2019-03-29T00:50:18.767Z,0
2019-03-29T00:51:18.792Z,0
2019-03-29T00:52:19.238Z,0
2019-03-29T00:53:18.889Z,0
2019-03-29T00:54:18.707Z,0
2019-03-29T00:55:18.724Z,0
2019-03-29T00:56:20.135Z,0
2019-03-29T00:57:18.736Z,0
2019-03-29T00:58:18.804Z,0
2019-03-29T00:59:19.595Z,0
2019-03-29T01:00:18.687Z,0
2019-03-29T01:01:18.697Z,0
2019-03-29T01:02:19.050Z,0
2019-03-29T01:03:18.660Z,0
2019-03-29T01:04:18.612Z,0
2019-03-29T01:05:18.698Z,0
2019-03-29T01:06:20.075Z,0
2019-03-29T01:07:18.390Z,0
2019-03-29T01:08:19.943Z,0
2019-03-29T01:09:18.635Z,0
2019-03-29T01:10:18.561Z,0
2019-03-29T01:11:19.587Z,0
2019-03-29T01:12:18.299Z,0
2019-03-29T01:13:18.584Z,0
2019-03-29T01:14:19.309Z,0
2019-03-29T01:15:18.925Z,0
2019-03-29T01:16:18.573Z,0
2019-03-29T01:17:18.253Z,0
2019-03-29T01:18:19.058Z,0
2019-03-29T01:19:18.504Z,0
2019-03-29T01:20:18.522Z,0
2019-03-29T01:21:18.782Z,0
2019-03-29T01:22:18.480Z,0
2019-03-29T01:23:18.511Z,0
2019-03-29T01:24:18.552Z,0
2019-03-29T01:25:18.467Z,0
2019-03-29T01:26:18.410Z,0
2019-03-29T01:27:19.041Z,0
2019-03-29T01:28:19.308Z,0
2019-03-29T01:29:18.426Z,0
2019-03-29T01:30:18.439Z,0
2019-03-29T01:31:19.844Z,0
2019-03-29T01:32:18.113Z,0
2019-03-29T01:33:18.342Z,0
2019-03-29T01:34:19.448Z,0
2019-03-29T01:35:18.752Z,0
2019-03-29T01:36:18.318Z,0
2019-03-29T01:37:18.141Z,0
2019-03-29T01:38:31.492Z,0
2019-03-29T01:39:19.313Z,0
2019-03-29T01:40:18.807Z,0
2019-03-29T01:41:18.313Z,0
2019-03-29T01:42:18.305Z,0
2019-03-29T01:43:19.485Z,0
2019-03-29T01:44:18.241Z,0
2019-03-29T01:45:18.301Z,0
2019-03-29T01:46:19.040Z,0
2019-03-29T01:47:18.230Z,0
2019-03-29T01:48:18.206Z,0
2019-03-29T01:49:18.444Z,0
2019-03-29T01:50:18.199Z,0
2019-03-29T01:51:18.186Z,0
2019-03-29T01:52:18.160Z,0
2019-03-29T01:53:19.081Z,0
2019-03-29T01:54:18.155Z,0
2019-03-29T01:55:18.183Z,0
2019-03-29T01:56:18.962Z,0
2019-03-29T01:57:18.178Z,0
2019-03-29T01:58:18.100Z,0
2019-03-29T01:59:19.393Z,0
2019-03-29T02:00:18.953Z,0
2019-03-29T02:01:18.128Z,0
2019-03-29T02:02:18.111Z,0
2019-03-29T02:03:18.178Z,0
2019-03-29T02:04:18.054Z,0
2019-03-29T02:05:18.041Z,0
2019-03-29T02:06:18.059Z,0
2019-03-29T02:07:18.852Z,0
2019-03-29T02:08:18.063Z,0
2019-03-29T02:09:17.993Z,0
2019-03-29T02:10:18.026Z,0
2019-03-29T02:11:17.975Z,0
2019-03-29T02:12:18.011Z,0
2019-03-29T02:13:17.969Z,0
2019-03-29T02:14:18.265Z,0
2019-03-29T02:15:19.012Z,0
2019-03-29T02:16:17.948Z,0
2019-03-29T02:17:17.977Z,0
2019-03-29T02:18:18.717Z,0
2019-03-29T02:19:17.932Z,0
2019-03-29T02:20:17.919Z,0
2019-03-29T02:21:19.340Z,0
2019-03-29T02:22:18.391Z,0
2019-03-29T02:23:17.896Z,0
2019-03-29T02:24:17.913Z,0
2019-03-29T02:25:18.733Z,0
2019-03-29T02:26:18.613Z,0
2019-03-29T02:27:17.577Z,0
2019-03-29T02:28:18.811Z,0
2019-03-29T02:29:18.314Z,0
2019-03-29T02:30:17.923Z,0
2019-03-29T02:31:17.585Z,0
2019-03-29T02:32:17.605Z,0
2019-03-29T02:33:17.926Z,0
2019-03-29T02:34:18.657Z,0
2019-03-29T02:35:18.993Z,0
2019-03-29T02:36:17.791Z,0
2019-03-29T02:37:17.810Z,0
2019-03-29T02:38:17.569Z,0
2019-03-29T02:39:17.749Z,0
2019-03-29T02:40:17.803Z,0
2019-03-29T02:41:18.913Z,0
2019-03-29T02:42:19.622Z,0
2019-03-29T02:43:18.281Z,0
2019-03-29T02:44:17.736Z,0
2019-03-29T02:45:17.689Z,0
2019-03-29T02:46:17.717Z,0
2019-03-29T02:47:17.674Z,0
2019-03-29T02:48:19.330Z,0
2019-03-29T02:49:19.856Z,0
2019-03-29T02:50:18.670Z,0
2019-03-29T02:51:17.646Z,0
2019-03-29T02:52:17.651Z,0
2019-03-29T02:53:17.656Z,0
2019-03-29T02:54:17.611Z,0
2019-03-29T02:55:17.623Z,0
2019-03-29T02:56:17.558Z,0
2019-03-29T02:57:17.625Z,0
2019-03-29T02:58:17.558Z,0
2019-03-29T02:59:17.611Z,0
2019-03-29T03:00:17.577Z,0
2019-03-29T03:01:17.570Z,0
2019-03-29T03:02:17.551Z,0
2019-03-29T03:03:17.553Z,0
2019-03-29T03:04:17.507Z,0
2019-03-29T03:05:17.539Z,0
2019-03-29T03:06:17.498Z,0
2019-03-29T03:07:17.611Z,0
2019-03-29T03:08:17.526Z,0
2019-03-29T03:09:23.795Z,0
2019-03-29T03:10:17.463Z,0
2019-03-29T03:11:17.439Z,0
2019-03-29T03:12:17.434Z,0
2019-03-29T03:13:17.489Z,0
2019-03-29T03:14:17.436Z,0
2019-03-29T03:15:17.452Z,0
2019-03-29T03:16:17.411Z,0
2019-03-29T03:17:17.412Z,0
2019-03-29T03:18:17.433Z,0
2019-03-29T03:19:17.510Z,0
2019-03-29T03:20:22.067Z,0
2019-03-29T03:21:17.319Z,0
2019-03-29T03:22:17.342Z,0
2019-03-29T03:23:17.366Z,0
2019-03-29T03:24:17.447Z,0
2019-03-29T03:25:17.430Z,0
2019-03-29T03:26:17.296Z,0
2019-03-29T03:27:17.319Z,0
2019-03-29T03:28:17.252Z,0
2019-03-29T03:29:17.296Z,0
2019-03-29T03:30:17.297Z,0
2019-03-29T03:31:17.369Z,0
2019-03-29T03:32:17.317Z,0
2019-03-29T03:33:17.274Z,0
2019-03-29T03:34:17.272Z,0
2019-03-29T03:35:17.277Z,0
2019-03-29T03:36:17.221Z,0
2019-03-29T03:37:17.177Z,0
2019-03-29T03:38:17.186Z,0
2019-03-29T03:39:35.343Z,0
2019-03-29T03:40:17.198Z,0
2019-03-29T03:41:17.187Z,0
2019-03-29T03:42:17.154Z,0
2019-03-29T03:43:17.177Z,0
2019-03-29T03:44:17.092Z,0
2019-03-29T03:45:17.154Z,0
2019-03-29T03:46:17.194Z,0
2019-03-29T03:47:17.150Z,0
2019-03-29T03:48:17.075Z,0
2019-03-29T03:49:17.099Z,0
2019-03-29T03:50:17.029Z,0
2019-03-29T03:51:17.070Z,0
2019-03-29T03:52:17.037Z,0
2019-03-29T03:53:17.072Z,0
2019-03-29T03:54:17.036Z,0
2019-03-29T03:55:17.027Z,0
2019-03-29T03:56:17.005Z,0
2019-03-29T03:57:17.031Z,0
2019-03-29T03:58:16.977Z,0
2019-03-29T03:59:16.998Z,0
2019-03-29T04:00:16.692Z,0
2019-03-29T04:01:16.999Z,0
2019-03-29T04:02:16.949Z,0
2019-03-29T04:03:16.966Z,0
2019-03-29T04:04:16.706Z,0
2019-03-29T04:05:16.980Z,0
2019-03-29T04:06:16.899Z,0
2019-03-29T04:07:16.919Z,0
2019-03-29T04:08:16.891Z,0
2019-03-29T04:09:16.958Z,0
2019-03-29T04:10:16.644Z,0
2019-03-29T04:11:16.866Z,0
2019-03-29T04:12:16.843Z,0
2019-03-29T04:13:16.601Z,0
2019-03-29T04:14:16.858Z,0
2019-03-29T04:15:16.842Z,0
2019-03-29T04:16:16.851Z,0
2019-03-29T04:17:16.784Z,0
2019-03-29T04:18:20.818Z,0
2019-03-29T04:19:16.780Z,0
2019-03-29T04:20:16.790Z,0
2019-03-29T04:21:16.733Z,0
2019-03-29T04:22:16.886Z,0
2019-03-29T04:23:16.755Z,0
2019-03-29T04:24:16.778Z,0
2019-03-29T04:25:16.520Z,0
2019-03-29T04:26:16.757Z,0
2019-03-29T04:27:16.734Z,0
2019-03-29T04:28:16.683Z,0
2019-03-29T04:29:16.684Z,0
2019-03-29T04:30:16.784Z,0
2019-03-29T04:31:16.661Z,0
2019-03-29T04:32:16.702Z,0
2019-03-29T04:33:20.489Z,0
2019-03-29T04:34:16.708Z,0
2019-03-29T04:35:16.605Z,0
2019-03-29T04:36:16.812Z,0
2019-03-29T04:37:16.606Z,0
2019-03-29T04:38:16.772Z,0
2019-03-29T04:39:16.719Z,0
2019-03-29T04:40:18.419Z,0
2019-03-29T04:41:16.305Z,0
2019-03-29T04:42:16.698Z,0
2019-03-29T04:43:16.322Z,0
2019-03-29T04:44:16.555Z,0
2019-03-29T04:45:16.314Z,0
2019-03-29T04:46:16.589Z,0
2019-03-29T04:47:16.522Z,0
2019-03-29T04:48:16.775Z,0
2019-03-29T04:49:16.217Z,0
2019-03-29T04:50:16.488Z,5
2019-03-29T04:51:16.435Z,5
2019-03-29T04:52:16.490Z,5
2019-03-29T04:53:16.423Z,5
2019-03-29T04:54:16.497Z,5
2019-03-29T04:55:16.429Z,5
2019-03-29T04:56:16.442Z,5
2019-03-29T04:57:16.376Z,5
2019-03-29T04:58:16.403Z,10
2019-03-29T04:59:16.390Z,10
2019-03-29T05:00:16.416Z,10
2019-03-29T05:01:19.815Z,10
2019-03-29T05:02:16.379Z,10
2019-03-29T05:03:16.376Z,10
2019-03-29T05:04:16.390Z,15
2019-03-29T05:05:16.324Z,10
2019-03-29T05:06:16.344Z,15
2019-03-29T05:07:16.296Z,15
2019-03-29T05:08:16.333Z,15
2019-03-29T05:09:16.275Z,15
2019-03-29T05:10:30.057Z,15
2019-03-29T05:11:16.284Z,15
2019-03-29T05:12:16.304Z,20
2019-03-29T05:13:16.312Z,20
2019-03-29T05:14:16.278Z,20
2019-03-29T05:15:16.264Z,20
2019-03-29T05:16:16.216Z,20
2019-03-29T05:17:16.199Z,20
2019-03-29T05:18:16.227Z,25
2019-03-29T05:19:16.205Z,25
2019-03-29T05:20:16.225Z,30
2019-03-29T05:21:16.170Z,30
2019-03-29T05:22:15.954Z,25
2019-03-29T05:23:16.134Z,30
2019-03-29T05:24:16.175Z,30
2019-03-29T05:25:16.131Z,35
2019-03-29T05:26:16.172Z,35
2019-03-29T05:27:16.128Z,35
2019-03-29T05:28:16.135Z,40
2019-03-29T05:29:16.146Z,40
2019-03-29T05:30:16.096Z,35
2019-03-29T05:31:16.085Z,30
2019-03-29T05:32:16.164Z,25
2019-03-29T05:33:16.099Z,25
2019-03-29T05:34:16.072Z,30
2019-03-29T05:35:16.051Z,35
2019-03-29T05:36:16.019Z,40
2019-03-29T05:37:16.073Z,40
2019-03-29T05:38:16.012Z,40
2019-03-29T05:39:16.033Z,35
2019-03-29T05:40:16.067Z,30
2019-03-29T05:41:15.971Z,35
2019-03-29T05:42:16.027Z,35
2019-03-29T05:43:15.984Z,35
2019-03-29T05:44:15.986Z,35
2019-03-29T05:45:15.931Z,35
2019-03-29T05:46:15.942Z,40
2019-03-29T05:47:15.943Z,45
2019-03-29T05:48:15.955Z,45
2019-03-29T05:49:15.956Z,50
2019-03-29T05:50:15.900Z,50
2019-03-29T05:51:15.909Z,50
2019-03-29T05:52:15.635Z,55
2019-03-29T05:53:15.920Z,55
2019-03-29T05:54:15.869Z,55
2019-03-29T05:55:15.654Z,65
2019-03-29T05:56:15.858Z,70
2019-03-29T05:57:15.883Z,70
2019-03-29T05:58:15.816Z,70
2019-03-29T05:59:15.874Z,75
2019-03-29T06:00:15.823Z,80
2019-03-29T06:01:15.856Z,85
2019-03-29T06:02:15.825Z,90
2019-03-29T06:03:17.323Z,95
2019-03-29T06:04:15.784Z,95
2019-03-29T06:05:15.818Z,100
2019-03-29T06:06:15.782Z,95
2019-03-29T06:07:15.769Z,90
2019-03-29T06:08:15.733Z,85
2019-03-29T06:09:15.781Z,90
2019-03-29T06:10:15.734Z,100
2019-03-29T06:11:15.518Z,105
2019-03-29T06:12:15.714Z,115
2019-03-29T06:13:15.747Z,125
2019-03-29T06:14:15.677Z,130
2019-03-29T06:15:15.716Z,125
2019-03-29T06:16:15.887Z,130
2019-03-29T06:17:15.767Z,140
2019-03-29T06:18:15.686Z,140
2019-03-29T06:19:15.699Z,135
2019-03-29T06:20:15.655Z,145
2019-03-29T06:21:15.623Z,150
2019-03-29T06:22:15.659Z,165
2019-03-29T06:23:15.643Z,160
2019-03-29T06:24:15.659Z,160
2019-03-29T06:25:15.604Z,160
2019-03-29T06:26:15.631Z,155
2019-03-29T06:27:15.579Z,165
2019-03-29T06:28:15.611Z,165
2019-03-29T06:29:15.565Z,175
2019-03-29T06:30:15.591Z,175
2019-03-29T06:31:15.580Z,180
2019-03-29T06:32:15.545Z,190
2019-03-29T06:33:15.584Z,190
2019-03-29T06:34:15.555Z,185
2019-03-29T06:35:15.541Z,185
2019-03-29T06:36:15.521Z,175
2019-03-29T06:37:15.499Z,175
2019-03-29T06:38:15.293Z,155
2019-03-29T06:39:15.509Z,160
2019-03-29T06:40:15.532Z,185
2019-03-29T06:41:15.471Z,200
2019-03-29T06:42:15.543Z,210
2019-03-29T06:43:15.441Z,225
2019-03-29T06:44:15.480Z,215
2019-03-29T06:45:15.445Z,230
2019-03-29T06:46:15.529Z,230
2019-03-29T06:47:15.449Z,240
2019-03-29T06:48:15.452Z,245
2019-03-29T06:49:15.406Z,250
2019-03-29T06:50:18.751Z,245
2019-03-29T06:51:15.413Z,250
2019-03-29T06:52:15.425Z,250
2019-03-29T06:53:15.427Z,255
2019-03-29T06:54:15.411Z,250
2019-03-29T06:55:15.134Z,240
2019-03-29T06:56:15.399Z,235
2019-03-29T06:57:15.357Z,235
2019-03-29T06:58:15.679Z,235
2019-03-29T06:59:15.332Z,235
2019-03-29T07:00:15.393Z,235
2019-03-29T07:01:15.322Z,240
2019-03-29T07:02:15.378Z,245
2019-03-29T07:03:15.347Z,245
2019-03-29T07:04:15.357Z,245
2019-03-29T07:05:15.301Z,240
2019-03-29T07:06:15.311Z,245
2019-03-29T07:07:15.315Z,245
2019-03-29T07:08:15.333Z,250
2019-03-29T07:09:15.337Z,250
2019-03-29T07:10:15.288Z,250
2019-03-29T07:11:26.039Z,255
2019-03-29T07:12:15.247Z,245
2019-03-29T07:13:15.294Z,240
2019-03-29T07:14:15.277Z,240
2019-03-29T07:15:15.291Z,240
2019-03-29T07:16:15.227Z,235
2019-03-29T07:17:17.519Z,215
2019-03-29T07:18:15.213Z,215
2019-03-29T07:19:15.232Z,215
2019-03-29T07:20:14.964Z,240
2019-03-29T07:21:28.629Z,245
2019-03-29T07:22:15.198Z,240
2019-03-29T07:23:15.225Z,250
2019-03-29T07:24:15.212Z,255
2019-03-29T07:25:15.298Z,250
2019-03-29T07:26:15.226Z,245
2019-03-29T07:27:15.204Z,245
2019-03-29T07:28:15.141Z,245
2019-03-29T07:29:15.278Z,245
2019-03-29T07:30:15.150Z,240
2019-03-29T07:31:15.184Z,245
2019-03-29T07:32:15.136Z,245
2019-03-29T07:33:14.930Z,240
2019-03-29T07:34:15.114Z,235
2019-03-29T07:35:15.141Z,240
2019-03-29T07:36:15.107Z,240
2019-03-29T07:37:15.573Z,250
2019-03-29T07:38:15.122Z,260
2019-03-29T07:39:15.110Z,270
2019-03-29T07:40:15.081Z,255
2019-03-29T07:41:15.102Z,260
2019-03-29T07:42:15.151Z,260
2019-03-29T07:43:15.085Z,275
2019-03-29T07:44:15.106Z,285
2019-03-29T07:45:17.407Z,270
2019-03-29T07:46:15.070Z,275
2019-03-29T07:47:15.073Z,295
2019-03-29T07:48:15.089Z,300
2019-03-29T07:49:15.067Z,295
2019-03-29T07:50:15.009Z,295
2019-03-29T07:51:15.072Z,295
2019-03-29T07:52:15.007Z,300
2019-03-29T07:53:15.056Z,295
2019-03-29T07:54:15.110Z,280
2019-03-29T07:55:15.012Z,290
2019-03-29T07:56:14.989Z,285
2019-03-29T07:57:14.975Z,305
2019-03-29T07:58:14.755Z,335
2019-03-29T07:59:14.988Z,345
2019-03-29T08:00:15.665Z,350
2019-03-29T08:01:15.525Z,350
2019-03-29T08:02:15.007Z,345
2019-03-29T08:03:15.002Z,340
2019-03-29T08:04:14.994Z,330
2019-03-29T08:05:14.924Z,340
2019-03-29T08:06:14.979Z,340
2019-03-29T08:07:31.427Z,335
2019-03-29T08:08:34.955Z,320
2019-03-29T08:09:29.987Z,320
2019-03-29T08:10:33.377Z,320
2019-03-29T08:11:28.455Z,315
2019-03-29T08:12:14.977Z,330
2019-03-29T08:13:16.055Z,345
2019-03-29T08:14:20.243Z,350
2019-03-29T08:15:17.016Z,350
2019-03-29T08:16:16.263Z,340
2019-03-29T08:17:14.621Z,345
2019-03-29T08:18:14.906Z,345
2019-03-29T08:19:14.857Z,345
2019-03-29T08:20:51.242Z,355
2019-03-29T08:21:14.919Z,360
2019-03-29T08:22:14.895Z,360
2019-03-29T08:23:14.956Z,360
2019-03-29T08:24:14.870Z,370
2019-03-29T08:25:14.824Z,370
2019-03-29T08:26:14.857Z,365
2019-03-29T08:27:14.848Z,370
2019-03-29T08:28:15.026Z,370
2019-03-29T08:29:14.912Z,380
2019-03-29T08:30:14.855Z,390
2019-03-29T08:31:14.601Z,400
2019-03-29T08:32:14.858Z,405
2019-03-29T08:33:14.786Z,405
2019-03-29T08:34:14.816Z,410
2019-03-29T08:35:14.782Z,410
2019-03-29T08:36:15.125Z,415
2019-03-29T08:37:14.768Z,415
2019-03-29T08:38:15.876Z,415
2019-03-29T08:39:31.964Z,410
2019-03-29T08:40:14.788Z,405
2019-03-29T08:41:14.902Z,405
2019-03-29T08:42:14.781Z,400
2019-03-29T08:43:14.524Z,405
2019-03-29T08:44:16.628Z,410
2019-03-29T08:45:14.732Z,415
2019-03-29T08:46:14.765Z,425
2019-03-29T08:47:14.530Z,425
2019-03-29T08:48:16.447Z,425
2019-03-29T08:49:16.770Z,425
2019-03-29T08:50:14.593Z,420
2019-03-29T08:51:14.708Z,420
2019-03-29T08:52:14.825Z,415
2019-03-29T08:53:14.703Z,420
2019-03-29T08:54:14.749Z,425
2019-03-29T08:55:17.402Z,420
2019-03-29T08:56:14.726Z,415
2019-03-29T08:57:17.614Z,405
2019-03-29T08:58:14.704Z,405
2019-03-29T08:59:17.387Z,405
2019-03-29T09:00:18.220Z,410
2019-03-29T09:01:14.710Z,410
2019-03-29T09:02:14.694Z,395
2019-03-29T09:03:14.677Z,380
2019-03-29T09:04:15.611Z,365
2019-03-29T09:05:14.659Z,355
2019-03-29T09:06:14.719Z,360
2019-03-29T09:07:14.662Z,350
2019-03-29T09:08:14.701Z,345
2019-03-29T09:09:16.779Z,375
2019-03-29T09:10:14.685Z,385
2019-03-29T09:11:17.193Z,375
2019-03-29T09:12:24.123Z,335
2019-03-29T09:13:14.631Z,295
2019-03-29T09:14:14.635Z,290
2019-03-29T09:15:14.643Z,305
2019-03-29T09:16:14.645Z,330
2019-03-29T09:17:14.666Z,355
2019-03-29T09:18:14.609Z,370
2019-03-29T09:19:14.630Z,395
2019-03-29T09:20:17.583Z,415
2019-03-29T09:21:14.635Z,420
2019-03-29T09:22:14.363Z,410
2019-03-29T09:23:17.608Z,375
2019-03-29T09:24:28.133Z,355
2019-03-29T09:25:14.619Z,335
2019-03-29T09:26:14.564Z,350
2019-03-29T09:27:14.591Z,350
2019-03-29T09:28:14.567Z,380
2019-03-29T09:29:14.355Z,400
2019-03-29T09:30:14.796Z,410
2019-03-29T09:31:14.579Z,405
2019-03-29T09:32:14.582Z,390
2019-03-29T09:33:14.594Z,370
2019-03-29T09:34:14.554Z,360
2019-03-29T09:35:14.564Z,340
2019-03-29T09:36:14.810Z,345
2019-03-29T09:37:14.573Z,365
2019-03-29T09:38:14.542Z,365
2019-03-29T09:39:14.565Z,365
2019-03-29T09:40:16.393Z,360
2019-03-29T09:41:14.574Z,345
2019-03-29T09:42:30.778Z,340
2019-03-29T09:43:17.268Z,330
2019-03-29T09:44:14.340Z,320
2019-03-29T09:45:14.542Z,320
2019-03-29T09:46:14.539Z,315
2019-03-29T09:47:14.503Z,300
2019-03-29T09:48:14.513Z,300
2019-03-29T09:49:17.793Z,310
2019-03-29T09:50:17.588Z,325
2019-03-29T09:51:14.566Z,325
2019-03-29T09:52:14.509Z,340
2019-03-29T09:53:14.462Z,350
2019-03-29T09:54:14.486Z,355
2019-03-29T09:55:14.470Z,360
2019-03-29T09:56:14.462Z,370
2019-03-29T09:57:20.420Z,385
2019-03-29T09:58:16.479Z,385
2019-03-29T09:59:16.390Z,380
2019-03-29T10:00:30.686Z,385
2019-03-29T10:01:14.686Z,385
2019-03-29T10:02:14.512Z,385
2019-03-29T10:03:14.445Z,380
2019-03-29T10:04:14.414Z,390
2019-03-29T10:05:14.406Z,405
2019-03-29T10:06:17.698Z,400
2019-03-29T10:07:14.187Z,390
2019-03-29T10:08:14.407Z,385
2019-03-29T10:09:14.484Z,395
2019-03-29T10:10:14.400Z,390
2019-03-29T10:11:14.431Z,385
2019-03-29T10:12:14.146Z,380
2019-03-29T10:13:14.429Z,385
2019-03-29T10:14:14.355Z,385
2019-03-29T10:15:14.384Z,385
2019-03-29T10:16:14.378Z,365
2019-03-29T10:17:14.408Z,360
2019-03-29T10:18:14.426Z,360
2019-03-29T10:19:14.384Z,360
2019-03-29T10:20:14.350Z,360
2019-03-29T10:21:16.957Z,360
2019-03-29T10:22:14.355Z,360
2019-03-29T10:23:14.345Z,355
2019-03-29T10:24:14.327Z,350
2019-03-29T10:25:28.866Z,350
2019-03-29T10:26:14.334Z,335
2019-03-29T10:27:14.361Z,335
2019-03-29T10:28:14.321Z,330
2019-03-29T10:29:14.101Z,325
2019-03-29T10:30:14.047Z,335
2019-03-29T10:31:14.320Z,360
2019-03-29T10:32:18.607Z,380
2019-03-29T10:33:14.336Z,390
2019-03-29T10:34:14.334Z,405
2019-03-29T10:35:14.297Z,415
2019-03-29T10:36:14.282Z,415
2019-03-29T10:37:14.267Z,415
2019-03-29T10:38:17.714Z,420
2019-03-29T10:39:14.039Z,420
2019-03-29T10:40:14.311Z,410
2019-03-29T10:41:14.241Z,425
2019-03-29T10:42:14.288Z,400
2019-03-29T10:43:14.008Z,385
2019-03-29T10:44:14.084Z,385
2019-03-29T10:45:14.239Z,400
2019-03-29T10:46:14.286Z,425
2019-03-29T10:47:14.251Z,435
2019-03-29T10:48:14.226Z,440
2019-03-29T10:49:14.283Z,455
2019-03-29T10:50:14.248Z,470
2019-03-29T10:51:17.816Z,465
2019-03-29T10:52:14.213Z,455
2019-03-29T10:53:13.961Z,455
2019-03-29T10:54:14.253Z,465
2019-03-29T10:55:14.247Z,475
2019-03-29T10:56:14.259Z,480
2019-03-29T10:57:14.187Z,470
2019-03-29T10:58:16.918Z,455
2019-03-29T10:59:26.553Z,470
2019-03-29T11:00:14.208Z,475
2019-03-29T11:01:14.166Z,490
2019-03-29T11:02:14.221Z,515
2019-03-29T11:03:14.203Z,530
2019-03-29T11:04:14.195Z,535
2019-03-29T11:05:14.156Z,535
2019-03-29T11:06:13.981Z,525
2019-03-29T11:07:14.207Z,510
2019-03-29T11:08:16.858Z,510
2019-03-29T11:09:14.186Z,510
2019-03-29T11:10:14.150Z,515
2019-03-29T11:11:14.154Z,520
2019-03-29T11:12:14.180Z,505
2019-03-29T11:13:22.238Z,480
2019-03-29T11:14:14.160Z,470
2019-03-29T11:15:16.125Z,475
2019-03-29T11:16:14.188Z,495
2019-03-29T11:17:14.113Z,505
2019-03-29T11:18:14.169Z,515
2019-03-29T11:19:14.127Z,515
2019-03-29T11:20:14.146Z,515
2019-03-29T11:21:14.093Z,520
2019-03-29T11:22:14.113Z,515
2019-03-29T11:23:14.122Z,500
2019-03-29T11:24:16.436Z,485
2019-03-29T11:25:14.143Z,480
2019-03-29T11:26:14.104Z,475
2019-03-29T11:27:14.109Z,450
2019-03-29T11:28:14.075Z,405
2019-03-29T11:29:13.890Z,380
2019-03-29T11:30:14.113Z,375
2019-03-29T11:31:14.226Z,375
2019-03-29T11:32:14.076Z,370
2019-03-29T11:33:14.145Z,350
2019-03-29T11:34:14.057Z,335
2019-03-29T11:35:14.088Z,340
2019-03-29T11:36:14.069Z,340
2019-03-29T11:37:14.159Z,335
2019-03-29T11:38:14.164Z,340
2019-03-29T11:39:14.073Z,335
2019-03-29T11:40:14.083Z,325
2019-03-29T11:41:14.100Z,330
2019-03-29T11:42:14.050Z,330
2019-03-29T11:43:28.361Z,340
2019-03-29T11:44:14.025Z,355
2019-03-29T11:45:14.076Z,355
2019-03-29T11:46:14.038Z,360
2019-03-29T11:47:14.082Z,365
2019-03-29T11:48:18.698Z,365
2019-03-29T11:49:14.065Z,365
2019-03-29T11:50:14.023Z,385
2019-03-29T11:51:27.851Z,410
2019-03-29T11:52:13.814Z,405
2019-03-29T11:53:14.007Z,425
2019-03-29T11:54:14.013Z,470
2019-03-29T11:55:13.775Z,505
2019-03-29T11:56:14.028Z,545
2019-03-29T11:57:14.047Z,560
2019-03-29T11:58:14.000Z,565
2019-03-29T11:59:14.012Z,555
2019-03-29T12:00:14.009Z,535
2019-03-29T12:01:15.147Z,510
2019-03-29T12:02:14.014Z,500
2019-03-29T12:03:16.495Z,485
2019-03-29T12:04:14.005Z,485
2019-03-29T12:05:13.961Z,475
2019-03-29T12:06:14.024Z,475
2019-03-29T12:07:13.985Z,455
2019-03-29T12:08:13.997Z,435
2019-03-29T12:09:13.976Z,425
2019-03-29T12:10:13.966Z,405
2019-03-29T12:11:13.740Z,390
2019-03-29T12:12:13.996Z,370
2019-03-29T12:13:14.014Z,365
2019-03-29T12:14:14.633Z,350
2019-03-29T12:15:13.973Z,345
2019-03-29T12:16:13.933Z,340
2019-03-29T12:17:13.976Z,330
2019-03-29T12:18:13.944Z,335
2019-03-29T12:19:13.981Z,340
2019-03-29T12:20:14.022Z,355
2019-03-29T12:21:13.774Z,365
2019-03-29T12:22:13.915Z,380
2019-03-29T12:23:13.953Z,400
2019-03-29T12:24:13.923Z,420
2019-03-29T12:25:13.961Z,430
2019-03-29T12:26:13.942Z,430
2019-03-29T12:27:13.927Z,425
2019-03-29T12:28:13.953Z,410
2019-03-29T12:29:13.701Z,400
2019-03-29T12:30:30.429Z,390
2019-03-29T12:31:13.913Z,375
2019-03-29T12:32:13.890Z,360
2019-03-29T12:33:13.935Z,360
2019-03-29T12:34:13.895Z,365
2019-03-29T12:35:17.172Z,360
2019-03-29T12:36:13.882Z,365
2019-03-29T12:37:13.927Z,355
2019-03-29T12:38:13.870Z,350
2019-03-29T12:39:13.900Z,340
2019-03-29T12:40:13.875Z,350
2019-03-29T12:41:13.926Z,345
2019-03-29T12:42:13.730Z,340
2019-03-29T12:43:17.231Z,335
2019-03-29T12:44:13.859Z,335
2019-03-29T12:45:13.849Z,335
2019-03-29T12:46:13.887Z,350
2019-03-29T12:47:13.873Z,365
2019-03-29T12:48:13.902Z,365
2019-03-29T12:49:13.586Z,375
2019-03-29T12:50:13.871Z,410
2019-03-29T12:51:13.830Z,435
2019-03-29T12:52:13.867Z,455
2019-03-29T12:53:13.822Z,465
2019-03-29T12:54:16.944Z,460
2019-03-29T12:55:13.848Z,460
2019-03-29T12:56:13.824Z,450
2019-03-29T12:57:16.395Z,445
2019-03-29T12:58:13.844Z,435
2019-03-29T12:59:13.834Z,435
2019-03-29T13:00:13.816Z,425
2019-03-29T13:01:13.808Z,425
2019-03-29T13:02:13.826Z,430
2019-03-29T13:03:13.890Z,430
2019-03-29T13:04:16.986Z,430
2019-03-29T13:05:13.783Z,430
2019-03-29T13:06:13.826Z,435
2019-03-29T13:07:13.777Z,445
2019-03-29T13:08:13.617Z,460
2019-03-29T13:09:13.531Z,465
2019-03-29T13:10:13.823Z,475
2019-03-29T13:11:13.782Z,465
2019-03-29T13:12:13.805Z,460
2019-03-29T13:13:13.756Z,440
2019-03-29T13:14:20.254Z,425
2019-03-29T13:15:13.786Z,425
2019-03-29T13:16:13.806Z,420
2019-03-29T13:17:14.103Z,405
2019-03-29T13:18:13.752Z,400
2019-03-29T13:19:13.780Z,390
2019-03-29T13:20:13.783Z,390
2019-03-29T13:21:13.737Z,380
2019-03-29T13:22:13.869Z,370
2019-03-29T13:23:13.740Z,360
2019-03-29T13:24:15.925Z,345
2019-03-29T13:25:16.815Z,345
2019-03-29T13:26:13.783Z,365
2019-03-29T13:27:13.756Z,375
2019-03-29T13:28:13.773Z,370
2019-03-29T13:29:13.707Z,365
2019-03-29T13:30:16.965Z,365
2019-03-29T13:31:13.728Z,350
2019-03-29T13:32:13.743Z,325
2019-03-29T13:33:13.751Z,305
2019-03-29T13:34:13.716Z,285
2019-03-29T13:35:13.717Z,270
2019-03-29T13:36:13.690Z,270
2019-03-29T13:37:13.738Z,270
2019-03-29T13:38:13.703Z,270
2019-03-29T13:39:13.750Z,280
2019-03-29T13:40:13.692Z,285
2019-03-29T13:41:16.637Z,280
2019-03-29T13:42:13.667Z,280
2019-03-29T13:43:13.700Z,265
2019-03-29T13:44:30.751Z,260
2019-03-29T13:45:13.722Z,265
2019-03-29T13:46:13.670Z,260
2019-03-29T13:47:13.684Z,270
2019-03-29T13:48:13.737Z,280
2019-03-29T13:49:13.450Z,280
2019-03-29T13:50:13.667Z,290
2019-03-29T13:51:13.669Z,310
2019-03-29T13:52:13.641Z,325
2019-03-29T13:53:13.692Z,335
2019-03-29T13:54:13.642Z,340
2019-03-29T13:55:13.684Z,355
2019-03-29T13:56:13.640Z,370
2019-03-29T13:57:13.671Z,365
2019-03-29T13:58:13.623Z,360
2019-03-29T13:59:13.650Z,355
2019-03-29T14:00:13.619Z,350
2019-03-29T14:01:13.659Z,335
2019-03-29T14:02:13.640Z,325
2019-03-29T14:03:13.635Z,310
2019-03-29T14:04:13.599Z,300
2019-03-29T14:05:13.600Z,300
2019-03-29T14:06:13.378Z,310
2019-03-29T14:07:13.607Z,320
2019-03-29T14:08:13.394Z,325
2019-03-29T14:09:13.648Z,315